sensor_id;sensor_type;location;lat;lon;timestamp;temperature;humidity
31783;DHT22;18351;47.560;9.708;2022-07-29T00:00:59;18.30;99.90
31783;DHT22;18351;47.560;9.708;2022-07-29T00:03:25;18.40;99.90
31783;DHT22;18351;47.560;9.708;2022-07-29T00:05:51;18.40;99.90
31783;DHT22;18351;47.560;9.708;2022-07-29T00:08:20;18.40;99.90
31783;DHT22;18351;47.560;9.708;2022-07-29T00:10:46;18.50;99.90
31783;DHT22;18351;47.560;9.708;2022-07-29T00:13:12;18.50;99.90
31783;DHT22;18351;47.560;9.708;2022-07-29T00:15:40;18.50;99.90
31783;DHT22;18351;47.560;9.708;2022-07-29T00:18:06;18.50;99.90
31783;DHT22;18351;47.560;9.708;2022-07-29T00:20:32;18.50;99.90
31783;DHT22;18351;47.560;9.708;2022-07-29T00:22:58;18.50;99.90
31783;DHT22;18351;47.560;9.708;2022-07-29T00:25:23;18.50;99.90
31783;DHT22;18351;47.560;9.708;2022-07-29T00:27:49;18.60;99.90
31783;DHT22;18351;47.560;9.708;2022-07-29T00:30:15;18.60;99.90
31783;DHT22;18351;47.560;9.708;2022-07-29T00:32:40;18.70;99.90
31783;DHT22;18351;47.560;9.708;2022-07-29T00:35:06;18.60;99.90
31783;DHT22;18351;47.560;9.708;2022-07-29T00:37:51;18.70;99.90
31783;DHT22;18351;47.560;9.708;2022-07-29T00:40:16;18.70;99.90
31783;DHT22;18351;47.560;9.708;2022-07-29T00:42:46;18.70;99.90
31783;DHT22;18351;47.560;9.708;2022-07-29T00:45:13;18.70;99.90
31783;DHT22;18351;47.560;9.708;2022-07-29T00:47:40;18.70;99.90
31783;DHT22;18351;47.560;9.708;2022-07-29T00:50:07;18.60;99.90
31783;DHT22;18351;47.560;9.708;2022-07-29T00:52:37;18.60;99.90
31783;DHT22;18351;47.560;9.708;2022-07-29T00:55:06;18.60;99.90
31783;DHT22;18351;47.560;9.708;2022-07-29T00:57:33;18.50;99.90
31783;DHT22;18351;47.560;9.708;2022-07-29T00:59:59;18.50;99.90
31783;DHT22;18351;47.560;9.708;2022-07-29T01:02:25;18.50;99.90
31783;DHT22;18351;47.560;9.708;2022-07-29T01:04:51;18.50;99.90
31783;DHT22;18351;47.560;9.708;2022-07-29T01:07:17;18.50;99.90
31783;DHT22;18351;47.560;9.708;2022-07-29T01:09:44;18.50;99.90
31783;DHT22;18351;47.560;9.708;2022-07-29T01:12:10;18.50;99.90
31783;DHT22;18351;47.560;9.708;2022-07-29T01:14:38;18.50;99.90
31783;DHT22;18351;47.560;9.708;2022-07-29T01:17:33;18.50;99.90
31783;DHT22;18351;47.560;9.708;2022-07-29T01:20:03;18.50;99.90
31783;DHT22;18351;47.560;9.708;2022-07-29T01:22:53;18.50;99.90
31783;DHT22;18351;47.560;9.708;2022-07-29T01:31:14;18.50;99.90
31783;DHT22;18351;47.560;9.708;2022-07-29T01:33:43;18.50;99.90
31783;DHT22;18351;47.560;9.708;2022-07-29T01:36:25;18.50;99.90
31783;DHT22;18351;47.560;9.708;2022-07-29T01:39:19;18.50;99.90
31783;DHT22;18351;47.560;9.708;2022-07-29T01:42:42;18.40;99.90
31783;DHT22;18351;47.560;9.708;2022-07-29T01:44:50;18.40;99.90
31783;DHT22;18351;47.560;9.708;2022-07-29T01:47:21;18.30;99.90
31783;DHT22;18351;47.560;9.708;2022-07-29T01:49:51;18.30;99.90
31783;DHT22;18351;47.560;9.708;2022-07-29T01:52:31;18.30;99.90
31783;DHT22;18351;47.560;9.708;2022-07-29T01:55:04;18.30;99.90
31783;DHT22;18351;47.560;9.708;2022-07-29T01:57:33;18.20;99.90
31783;DHT22;18351;47.560;9.708;2022-07-29T02:00:03;18.20;99.90
31783;DHT22;18351;47.560;9.708;2022-07-29T02:02:31;18.20;99.90
31783;DHT22;18351;47.560;9.708;2022-07-29T02:04:59;18.20;99.90
31783;DHT22;18351;47.560;9.708;2022-07-29T02:07:28;18.20;99.90
31783;DHT22;18351;47.560;9.708;2022-07-29T02:09:55;18.20;99.90
31783;DHT22;18351;47.560;9.708;2022-07-29T02:12:22;18.10;99.90
31783;DHT22;18351;47.560;9.708;2022-07-29T02:14:52;18.20;99.90
31783;DHT22;18351;47.560;9.708;2022-07-29T02:17:23;18.10;99.90
31783;DHT22;18351;47.560;9.708;2022-07-29T02:19:53;18.10;99.90
31783;DHT22;18351;47.560;9.708;2022-07-29T02:22:21;18.10;99.90
31783;DHT22;18351;47.560;9.708;2022-07-29T02:24:49;18.10;99.90
31783;DHT22;18351;47.560;9.708;2022-07-29T02:27:18;18.10;99.90
31783;DHT22;18351;47.560;9.708;2022-07-29T02:29:45;18.00;99.90
31783;DHT22;18351;47.560;9.708;2022-07-29T02:32:13;18.00;99.90
31783;DHT22;18351;47.560;9.708;2022-07-29T02:34:39;18.00;99.90
31783;DHT22;18351;47.560;9.708;2022-07-29T02:37:11;17.90;99.90
31783;DHT22;18351;47.560;9.708;2022-07-29T02:39:37;17.90;99.90
31783;DHT22;18351;47.560;9.708;2022-07-29T02:42:07;17.80;99.90
31783;DHT22;18351;47.560;9.708;2022-07-29T02:44:35;17.80;99.90
31783;DHT22;18351;47.560;9.708;2022-07-29T02:50:19;17.80;99.90
31783;DHT22;18351;47.560;9.708;2022-07-29T02:53:00;17.80;99.90
31783;DHT22;18351;47.560;9.708;2022-07-29T02:55:34;17.80;99.90
31783;DHT22;18351;47.560;9.708;2022-07-29T03:00:57;17.70;99.90
31783;DHT22;18351;47.560;9.708;2022-07-29T03:03:26;17.70;99.90
31783;DHT22;18351;47.560;9.708;2022-07-29T03:05:57;17.70;99.90
31783;DHT22;18351;47.560;9.708;2022-07-29T03:08:24;17.70;99.90
31783;DHT22;18351;47.560;9.708;2022-07-29T03:10:51;17.70;99.90
31783;DHT22;18351;47.560;9.708;2022-07-29T03:13:18;17.60;99.90
31783;DHT22;18351;47.560;9.708;2022-07-29T03:15:45;17.70;99.90
31783;DHT22;18351;47.560;9.708;2022-07-29T03:18:10;17.70;99.90
31783;DHT22;18351;47.560;9.708;2022-07-29T03:20:38;17.80;99.90
31783;DHT22;18351;47.560;9.708;2022-07-29T03:23:04;17.80;99.90
31783;DHT22;18351;47.560;9.708;2022-07-29T03:25:30;17.80;99.90
31783;DHT22;18351;47.560;9.708;2022-07-29T03:27:56;17.80;99.90
31783;DHT22;18351;47.560;9.708;2022-07-29T03:30:22;17.80;99.90
31783;DHT22;18351;47.560;9.708;2022-07-29T03:32:49;17.80;99.90
31783;DHT22;18351;47.560;9.708;2022-07-29T03:35:15;17.80;99.90
31783;DHT22;18351;47.560;9.708;2022-07-29T03:37:42;17.80;99.90
31783;DHT22;18351;47.560;9.708;2022-07-29T03:40:10;17.80;99.90
31783;DHT22;18351;47.560;9.708;2022-07-29T03:42:39;17.80;99.90
31783;DHT22;18351;47.560;9.708;2022-07-29T03:45:07;17.80;99.90
31783;DHT22;18351;47.560;9.708;2022-07-29T03:47:37;17.80;99.90
31783;DHT22;18351;47.560;9.708;2022-07-29T03:50:08;17.90;99.90
31783;DHT22;18351;47.560;9.708;2022-07-29T03:52:35;18.00;99.90
31783;DHT22;18351;47.560;9.708;2022-07-29T03:55:02;18.00;99.90
31783;DHT22;18351;47.560;9.708;2022-07-29T03:57:28;18.00;99.90
31783;DHT22;18351;47.560;9.708;2022-07-29T03:59:55;18.00;99.90
31783;DHT22;18351;47.560;9.708;2022-07-29T04:02:21;18.10;99.90
31783;DHT22;18351;47.560;9.708;2022-07-29T04:04:48;18.20;99.90
31783;DHT22;18351;47.560;9.708;2022-07-29T04:07:14;18.20;99.90
31783;DHT22;18351;47.560;9.708;2022-07-29T04:09:40;18.30;99.90
31783;DHT22;18351;47.560;9.708;2022-07-29T04:12:06;18.40;99.90
31783;DHT22;18351;47.560;9.708;2022-07-29T04:14:33;18.40;99.90
31783;DHT22;18351;47.560;9.708;2022-07-29T04:17:00;18.50;99.90
31783;DHT22;18351;47.560;9.708;2022-07-29T04:19:25;18.50;99.90
31783;DHT22;18351;47.560;9.708;2022-07-29T04:21:51;18.60;99.90
31783;DHT22;18351;47.560;9.708;2022-07-29T04:24:16;18.70;99.90
31783;DHT22;18351;47.560;9.708;2022-07-29T04:26:42;18.70;99.90
31783;DHT22;18351;47.560;9.708;2022-07-29T04:29:08;18.70;99.90
31783;DHT22;18351;47.560;9.708;2022-07-29T04:31:33;18.70;99.90
31783;DHT22;18351;47.560;9.708;2022-07-29T04:33:59;18.80;99.90
31783;DHT22;18351;47.560;9.708;2022-07-29T04:36:24;18.80;99.90
31783;DHT22;18351;47.560;9.708;2022-07-29T04:38:50;18.90;99.90
31783;DHT22;18351;47.560;9.708;2022-07-29T04:41:15;18.90;99.90
31783;DHT22;18351;47.560;9.708;2022-07-29T04:43:41;18.90;99.90
31783;DHT22;18351;47.560;9.708;2022-07-29T04:46:07;19.00;99.90
31783;DHT22;18351;47.560;9.708;2022-07-29T04:48:32;19.00;99.90
31783;DHT22;18351;47.560;9.708;2022-07-29T04:50:58;18.90;99.90
31783;DHT22;18351;47.560;9.708;2022-07-29T04:53:24;18.90;99.90
31783;DHT22;18351;47.560;9.708;2022-07-29T04:55:50;18.90;99.90
31783;DHT22;18351;47.560;9.708;2022-07-29T04:58:16;18.90;99.90
31783;DHT22;18351;47.560;9.708;2022-07-29T05:00:42;19.00;99.90
31783;DHT22;18351;47.560;9.708;2022-07-29T05:03:07;18.90;99.90
31783;DHT22;18351;47.560;9.708;2022-07-29T05:05:33;18.90;99.90
31783;DHT22;18351;47.560;9.708;2022-07-29T05:07:59;19.00;99.90
31783;DHT22;18351;47.560;9.708;2022-07-29T05:10:24;19.00;99.90
31783;DHT22;18351;47.560;9.708;2022-07-29T05:12:50;19.10;99.90
31783;DHT22;18351;47.560;9.708;2022-07-29T05:15:15;19.10;99.90
31783;DHT22;18351;47.560;9.708;2022-07-29T05:17:43;19.20;99.90
31783;DHT22;18351;47.560;9.708;2022-07-29T05:20:08;19.20;99.90
31783;DHT22;18351;47.560;9.708;2022-07-29T05:22:34;19.20;99.90
31783;DHT22;18351;47.560;9.708;2022-07-29T05:25:00;19.20;99.90
31783;DHT22;18351;47.560;9.708;2022-07-29T05:27:25;19.20;99.90
31783;DHT22;18351;47.560;9.708;2022-07-29T05:29:51;19.30;99.90
31783;DHT22;18351;47.560;9.708;2022-07-29T05:32:16;19.20;99.90
31783;DHT22;18351;47.560;9.708;2022-07-29T05:34:42;19.30;99.90
31783;DHT22;18351;47.560;9.708;2022-07-29T05:37:08;19.20;99.90
31783;DHT22;18351;47.560;9.708;2022-07-29T05:39:33;19.30;99.90
31783;DHT22;18351;47.560;9.708;2022-07-29T05:41:59;19.30;99.90
31783;DHT22;18351;47.560;9.708;2022-07-29T05:44:24;19.30;99.90
31783;DHT22;18351;47.560;9.708;2022-07-29T05:46:50;19.30;99.90
31783;DHT22;18351;47.560;9.708;2022-07-29T05:49:15;19.40;99.90
31783;DHT22;18351;47.560;9.708;2022-07-29T05:51:41;19.30;99.90
31783;DHT22;18351;47.560;9.708;2022-07-29T05:54:06;19.30;99.90
31783;DHT22;18351;47.560;9.708;2022-07-29T05:56:32;19.40;99.90
31783;DHT22;18351;47.560;9.708;2022-07-29T05:58:57;19.40;99.90
31783;DHT22;18351;47.560;9.708;2022-07-29T06:01:23;19.40;99.90
31783;DHT22;18351;47.560;9.708;2022-07-29T06:03:49;19.40;99.90
31783;DHT22;18351;47.560;9.708;2022-07-29T06:06:15;19.40;99.90
31783;DHT22;18351;47.560;9.708;2022-07-29T06:08:40;19.30;99.90
31783;DHT22;18351;47.560;9.708;2022-07-29T06:11:06;19.30;99.90
31783;DHT22;18351;47.560;9.708;2022-07-29T06:13:33;19.30;99.90
31783;DHT22;18351;47.560;9.708;2022-07-29T06:15:59;19.30;99.90
31783;DHT22;18351;47.560;9.708;2022-07-29T06:18:25;19.30;99.90
31783;DHT22;18351;47.560;9.708;2022-07-29T06:20:51;19.30;99.90
31783;DHT22;18351;47.560;9.708;2022-07-29T06:23:17;19.30;99.90
31783;DHT22;18351;47.560;9.708;2022-07-29T06:25:43;19.30;99.90
31783;DHT22;18351;47.560;9.708;2022-07-29T06:28:09;19.20;99.90
31783;DHT22;18351;47.560;9.708;2022-07-29T06:30:34;19.20;99.90
31783;DHT22;18351;47.560;9.708;2022-07-29T06:33:00;19.30;99.90
31783;DHT22;18351;47.560;9.708;2022-07-29T06:35:27;19.20;99.90
31783;DHT22;18351;47.560;9.708;2022-07-29T06:37:53;19.30;99.90
31783;DHT22;18351;47.560;9.708;2022-07-29T06:40:19;19.30;99.90
31783;DHT22;18351;47.560;9.708;2022-07-29T06:43:03;19.30;99.90
31783;DHT22;18351;47.560;9.708;2022-07-29T06:45:28;19.40;99.90
31783;DHT22;18351;47.560;9.708;2022-07-29T06:47:54;19.40;99.90
31783;DHT22;18351;47.560;9.708;2022-07-29T06:50:20;19.40;99.90
31783;DHT22;18351;47.560;9.708;2022-07-29T06:52:47;19.60;99.90
31783;DHT22;18351;47.560;9.708;2022-07-29T06:55:12;19.80;99.90
31783;DHT22;18351;47.560;9.708;2022-07-29T06:57:38;20.00;99.90
31783;DHT22;18351;47.560;9.708;2022-07-29T07:00:05;20.20;99.90
31783;DHT22;18351;47.560;9.708;2022-07-29T07:02:30;20.40;99.90
31783;DHT22;18351;47.560;9.708;2022-07-29T07:04:56;20.60;99.90
31783;DHT22;18351;47.560;9.708;2022-07-29T07:07:22;20.80;99.90
31783;DHT22;18351;47.560;9.708;2022-07-29T07:09:47;21.10;99.90
31783;DHT22;18351;47.560;9.708;2022-07-29T07:12:13;21.30;99.90
31783;DHT22;18351;47.560;9.708;2022-07-29T07:14:38;21.50;99.90
31783;DHT22;18351;47.560;9.708;2022-07-29T07:17:06;21.60;99.90
31783;DHT22;18351;47.560;9.708;2022-07-29T07:19:32;21.90;99.90
31783;DHT22;18351;47.560;9.708;2022-07-29T07:21:58;21.90;99.90
31783;DHT22;18351;47.560;9.708;2022-07-29T07:24:23;22.00;99.90
31783;DHT22;18351;47.560;9.708;2022-07-29T07:26:49;22.10;99.90
31783;DHT22;18351;47.560;9.708;2022-07-29T07:29:14;22.20;99.90
31783;DHT22;18351;47.560;9.708;2022-07-29T07:31:40;22.30;99.90
31783;DHT22;18351;47.560;9.708;2022-07-29T07:34:05;22.40;99.90
31783;DHT22;18351;47.560;9.708;2022-07-29T07:36:31;22.60;99.90
31783;DHT22;18351;47.560;9.708;2022-07-29T07:38:56;22.70;99.90
31783;DHT22;18351;47.560;9.708;2022-07-29T07:41:22;22.70;99.90
31783;DHT22;18351;47.560;9.708;2022-07-29T07:43:48;23.00;99.90
31783;DHT22;18351;47.560;9.708;2022-07-29T07:46:14;23.20;99.90
31783;DHT22;18351;47.560;9.708;2022-07-29T07:48:39;23.40;99.90
31783;DHT22;18351;47.560;9.708;2022-07-29T07:51:06;23.50;99.40
31783;DHT22;18351;47.560;9.708;2022-07-29T07:53:32;23.80;99.30
31783;DHT22;18351;47.560;9.708;2022-07-29T07:55:58;24.20;99.90
31783;DHT22;18351;47.560;9.708;2022-07-29T07:58:24;24.30;96.90
31783;DHT22;18351;47.560;9.708;2022-07-29T08:00:49;24.50;97.00
31783;DHT22;18351;47.560;9.708;2022-07-29T08:03:15;24.50;96.50
31783;DHT22;18351;47.560;9.708;2022-07-29T08:05:40;24.60;96.80
31783;DHT22;18351;47.560;9.708;2022-07-29T08:08:06;24.60;95.40
31783;DHT22;18351;47.560;9.708;2022-07-29T08:10:32;24.60;95.90
31783;DHT22;18351;47.560;9.708;2022-07-29T08:13:17;24.70;95.60
31783;DHT22;18351;47.560;9.708;2022-07-29T08:15:43;24.80;95.40
31783;DHT22;18351;47.560;9.708;2022-07-29T08:18:10;24.90;95.50
31783;DHT22;18351;47.560;9.708;2022-07-29T08:20:36;24.90;95.60
31783;DHT22;18351;47.560;9.708;2022-07-29T08:23:03;24.80;95.30
31783;DHT22;18351;47.560;9.708;2022-07-29T08:25:31;24.60;95.40
31783;DHT22;18351;47.560;9.708;2022-07-29T08:27:57;24.60;95.40
31783;DHT22;18351;47.560;9.708;2022-07-29T08:30:22;24.50;95.90
31783;DHT22;18351;47.560;9.708;2022-07-29T08:32:48;24.50;96.40
31783;DHT22;18351;47.560;9.708;2022-07-29T08:35:15;24.40;96.00
31783;DHT22;18351;47.560;9.708;2022-07-29T08:37:41;24.50;96.00
31783;DHT22;18351;47.560;9.708;2022-07-29T08:40:07;24.40;97.00
31783;DHT22;18351;47.560;9.708;2022-07-29T08:42:33;24.60;96.70
31783;DHT22;18351;47.560;9.708;2022-07-29T08:44:58;24.80;98.20
31783;DHT22;18351;47.560;9.708;2022-07-29T08:47:25;25.00;97.20
31783;DHT22;18351;47.560;9.708;2022-07-29T08:49:52;25.10;97.30
31783;DHT22;18351;47.560;9.708;2022-07-29T08:52:18;25.30;96.80
31783;DHT22;18351;47.560;9.708;2022-07-29T08:54:45;25.30;95.20
31783;DHT22;18351;47.560;9.708;2022-07-29T08:57:15;25.10;94.70
31783;DHT22;18351;47.560;9.708;2022-07-29T08:59:42;24.90;95.40
31783;DHT22;18351;47.560;9.708;2022-07-29T09:02:21;24.80;96.20
31783;DHT22;18351;47.560;9.708;2022-07-29T09:04:47;24.90;96.00
31783;DHT22;18351;47.560;9.708;2022-07-29T09:07:17;24.90;96.10
31783;DHT22;18351;47.560;9.708;2022-07-29T09:09:43;25.10;96.50
31783;DHT22;18351;47.560;9.708;2022-07-29T09:12:10;25.00;96.30
31783;DHT22;18351;47.560;9.708;2022-07-29T09:14:39;25.00;96.80
31783;DHT22;18351;47.560;9.708;2022-07-29T09:17:05;25.00;98.00
31783;DHT22;18351;47.560;9.708;2022-07-29T09:19:33;25.00;96.10
31783;DHT22;18351;47.560;9.708;2022-07-29T09:22:01;25.00;95.50
31783;DHT22;18351;47.560;9.708;2022-07-29T09:24:43;25.00;95.70
31783;DHT22;18351;47.560;9.708;2022-07-29T09:29:46;24.70;93.90
31783;DHT22;18351;47.560;9.708;2022-07-29T09:32:12;24.50;93.50
31783;DHT22;18351;47.560;9.708;2022-07-29T09:34:37;24.50;93.80
31783;DHT22;18351;47.560;9.708;2022-07-29T09:37:04;24.30;94.20
31783;DHT22;18351;47.560;9.708;2022-07-29T09:39:37;24.20;95.10
31783;DHT22;18351;47.560;9.708;2022-07-29T09:42:05;24.20;95.50
31783;DHT22;18351;47.560;9.708;2022-07-29T09:44:44;23.90;96.00
31783;DHT22;18351;47.560;9.708;2022-07-29T09:47:10;23.80;98.00
31783;DHT22;18351;47.560;9.708;2022-07-29T09:52:29;23.70;98.40
31783;DHT22;18351;47.560;9.708;2022-07-29T09:55:07;23.60;99.20
31783;DHT22;18351;47.560;9.708;2022-07-29T09:57:33;23.50;99.90
31783;DHT22;18351;47.560;9.708;2022-07-29T10:00:08;23.40;99.90
31783;DHT22;18351;47.560;9.708;2022-07-29T10:02:36;23.20;99.90
31783;DHT22;18351;47.560;9.708;2022-07-29T10:05:04;23.10;99.90
31783;DHT22;18351;47.560;9.708;2022-07-29T10:07:51;23.10;99.90
31783;DHT22;18351;47.560;9.708;2022-07-29T10:10:25;23.00;99.90
31783;DHT22;18351;47.560;9.708;2022-07-29T10:12:52;22.70;99.90
31783;DHT22;18351;47.560;9.708;2022-07-29T10:15:18;22.50;99.90
31783;DHT22;18351;47.560;9.708;2022-07-29T10:17:46;22.30;99.90
31783;DHT22;18351;47.560;9.708;2022-07-29T10:20:13;22.30;99.90
31783;DHT22;18351;47.560;9.708;2022-07-29T10:22:40;22.40;99.90
31783;DHT22;18351;47.560;9.708;2022-07-29T10:25:07;22.40;99.90
31783;DHT22;18351;47.560;9.708;2022-07-29T10:27:35;22.30;99.90
31783;DHT22;18351;47.560;9.708;2022-07-29T10:30:00;22.20;99.90
31783;DHT22;18351;47.560;9.708;2022-07-29T10:32:39;22.30;99.90
31783;DHT22;18351;47.560;9.708;2022-07-29T10:35:21;22.40;99.90
31783;DHT22;18351;47.560;9.708;2022-07-29T10:40:54;22.30;99.90
31783;DHT22;18351;47.560;9.708;2022-07-29T10:43:44;22.20;99.90
31783;DHT22;18351;47.560;9.708;2022-07-29T10:46:11;22.40;99.90
31783;DHT22;18351;47.560;9.708;2022-07-29T10:54:40;22.20;99.90
31783;DHT22;18351;47.560;9.708;2022-07-29T10:57:26;22.20;99.90
31783;DHT22;18351;47.560;9.708;2022-07-29T11:04:59;22.50;99.90
31783;DHT22;18351;47.560;9.708;2022-07-29T11:07:25;22.60;99.90
31783;DHT22;18351;47.560;9.708;2022-07-29T11:15:16;22.90;99.90
31783;DHT22;18351;47.560;9.708;2022-07-29T11:25:44;23.60;99.90
31783;DHT22;18351;47.560;9.708;2022-07-29T11:28:19;23.80;99.90
31783;DHT22;18351;47.560;9.708;2022-07-29T11:30:51;24.10;99.90
31783;DHT22;18351;47.560;9.708;2022-07-29T11:33:47;24.40;99.90
31783;DHT22;18351;47.560;9.708;2022-07-29T11:36:14;24.70;99.90
31783;DHT22;18351;47.560;9.708;2022-07-29T11:38:40;24.80;96.20
31783;DHT22;18351;47.560;9.708;2022-07-29T11:41:21;24.70;96.50
31783;DHT22;18351;47.560;9.708;2022-07-29T11:43:52;24.80;96.70
31783;DHT22;18351;47.560;9.708;2022-07-29T11:49:22;25.10;94.50
31783;DHT22;18351;47.560;9.708;2022-07-29T11:51:52;25.30;95.10
31783;DHT22;18351;47.560;9.708;2022-07-29T11:54:26;25.40;93.90
31783;DHT22;18351;47.560;9.708;2022-07-29T11:56:54;25.50;93.00
31783;DHT22;18351;47.560;9.708;2022-07-29T11:59:21;25.60;93.00
31783;DHT22;18351;47.560;9.708;2022-07-29T12:01:54;25.60;93.70
31783;DHT22;18351;47.560;9.708;2022-07-29T12:04:19;25.60;91.60
31783;DHT22;18351;47.560;9.708;2022-07-29T12:06:51;25.70;91.80
31783;DHT22;18351;47.560;9.708;2022-07-29T12:09:18;25.80;91.00
31783;DHT22;18351;47.560;9.708;2022-07-29T12:11:44;26.20;91.40
31783;DHT22;18351;47.560;9.708;2022-07-29T12:14:31;26.50;90.30
31783;DHT22;18351;47.560;9.708;2022-07-29T12:16:58;26.60;88.70
31783;DHT22;18351;47.560;9.708;2022-07-29T12:19:28;26.60;87.40
31783;DHT22;18351;47.560;9.708;2022-07-29T12:21:55;26.40;85.30
31783;DHT22;18351;47.560;9.708;2022-07-29T12:24:23;26.00;85.40
31783;DHT22;18351;47.560;9.708;2022-07-29T12:26:54;25.80;89.60
31783;DHT22;18351;47.560;9.708;2022-07-29T12:29:21;26.00;90.60
31783;DHT22;18351;47.560;9.708;2022-07-29T12:31:51;26.10;81.20
31783;DHT22;18351;47.560;9.708;2022-07-29T12:34:20;26.00;82.50
31783;DHT22;18351;47.560;9.708;2022-07-29T12:36:46;26.00;85.00
31783;DHT22;18351;47.560;9.708;2022-07-29T12:39:11;26.20;86.00
31783;DHT22;18351;47.560;9.708;2022-07-29T12:41:38;26.30;81.30
31783;DHT22;18351;47.560;9.708;2022-07-29T12:44:04;26.20;78.10
31783;DHT22;18351;47.560;9.708;2022-07-29T12:46:29;26.10;83.20
31783;DHT22;18351;47.560;9.708;2022-07-29T12:48:55;26.10;81.20
31783;DHT22;18351;47.560;9.708;2022-07-29T12:51:29;26.10;79.60
31783;DHT22;18351;47.560;9.708;2022-07-29T12:56:28;26.30;80.00
31783;DHT22;18351;47.560;9.708;2022-07-29T12:58:54;26.50;83.10
31783;DHT22;18351;47.560;9.708;2022-07-29T13:01:21;26.70;78.70
31783;DHT22;18351;47.560;9.708;2022-07-29T13:03:54;26.60;79.00
31783;DHT22;18351;47.560;9.708;2022-07-29T13:06:42;26.60;77.30
31783;DHT22;18351;47.560;9.708;2022-07-29T13:09:18;26.50;76.00
31783;DHT22;18351;47.560;9.708;2022-07-29T13:11:49;26.50;78.90
31783;DHT22;18351;47.560;9.708;2022-07-29T13:14:35;26.60;77.40
31783;DHT22;18351;47.560;9.708;2022-07-29T13:17:06;26.70;75.90
31783;DHT22;18351;47.560;9.708;2022-07-29T13:19:45;26.50;73.30
31783;DHT22;18351;47.560;9.708;2022-07-29T13:22:17;26.30;72.90
31783;DHT22;18351;47.560;9.708;2022-07-29T13:24:52;26.00;75.30
31783;DHT22;18351;47.560;9.708;2022-07-29T13:27:19;25.80;76.30
31783;DHT22;18351;47.560;9.708;2022-07-29T13:29:45;25.70;77.20
31783;DHT22;18351;47.560;9.708;2022-07-29T13:32:12;25.40;77.20
31783;DHT22;18351;47.560;9.708;2022-07-29T13:34:38;25.30;80.00
31783;DHT22;18351;47.560;9.708;2022-07-29T13:37:04;25.20;81.60
31783;DHT22;18351;47.560;9.708;2022-07-29T13:39:29;25.30;84.10
31783;DHT22;18351;47.560;9.708;2022-07-29T13:41:55;25.20;82.20
31783;DHT22;18351;47.560;9.708;2022-07-29T13:44:21;25.40;81.50
31783;DHT22;18351;47.560;9.708;2022-07-29T13:46:46;25.50;85.60
31783;DHT22;18351;47.560;9.708;2022-07-29T13:49:12;25.80;82.60
31783;DHT22;18351;47.560;9.708;2022-07-29T13:51:38;26.10;81.10
31783;DHT22;18351;47.560;9.708;2022-07-29T13:54:04;26.30;80.90
31783;DHT22;18351;47.560;9.708;2022-07-29T13:56:29;26.30;79.20
31783;DHT22;18351;47.560;9.708;2022-07-29T13:58:55;26.40;78.60
31783;DHT22;18351;47.560;9.708;2022-07-29T14:01:21;26.40;78.80
31783;DHT22;18351;47.560;9.708;2022-07-29T14:03:46;26.40;76.20
31783;DHT22;18351;47.560;9.708;2022-07-29T14:06:12;26.50;76.40
31783;DHT22;18351;47.560;9.708;2022-07-29T14:08:38;26.50;76.50
31783;DHT22;18351;47.560;9.708;2022-07-29T14:11:04;26.40;78.40
31783;DHT22;18351;47.560;9.708;2022-07-29T14:13:29;26.40;76.70
31783;DHT22;18351;47.560;9.708;2022-07-29T14:15:55;26.50;78.70
31783;DHT22;18351;47.560;9.708;2022-07-29T14:18:20;26.40;77.30
31783;DHT22;18351;47.560;9.708;2022-07-29T14:20:46;26.30;75.30
31783;DHT22;18351;47.560;9.708;2022-07-29T14:23:11;25.90;76.90
31783;DHT22;18351;47.560;9.708;2022-07-29T14:25:37;25.70;77.80
31783;DHT22;18351;47.560;9.708;2022-07-29T14:28:02;25.70;81.30
31783;DHT22;18351;47.560;9.708;2022-07-29T14:30:28;25.60;79.70
31783;DHT22;18351;47.560;9.708;2022-07-29T14:32:54;25.50;81.00
31783;DHT22;18351;47.560;9.708;2022-07-29T14:35:19;25.40;80.70
31783;DHT22;18351;47.560;9.708;2022-07-29T14:37:45;25.30;83.60
31783;DHT22;18351;47.560;9.708;2022-07-29T14:40:11;25.30;84.10
31783;DHT22;18351;47.560;9.708;2022-07-29T14:42:37;25.20;84.70
31783;DHT22;18351;47.560;9.708;2022-07-29T14:45:04;25.20;85.80
31783;DHT22;18351;47.560;9.708;2022-07-29T14:47:30;25.10;86.00
31783;DHT22;18351;47.560;9.708;2022-07-29T14:49:56;25.10;85.60
31783;DHT22;18351;47.560;9.708;2022-07-29T14:52:21;25.00;85.10
31783;DHT22;18351;47.560;9.708;2022-07-29T14:54:47;24.90;87.40
31783;DHT22;18351;47.560;9.708;2022-07-29T14:57:13;24.90;90.10
31783;DHT22;18351;47.560;9.708;2022-07-29T14:59:38;24.80;90.20
31783;DHT22;18351;47.560;9.708;2022-07-29T15:02:04;24.80;91.10
31783;DHT22;18351;47.560;9.708;2022-07-29T15:04:29;24.80;91.10
31783;DHT22;18351;47.560;9.708;2022-07-29T15:06:55;24.70;91.70
31783;DHT22;18351;47.560;9.708;2022-07-29T15:09:21;24.70;92.00
31783;DHT22;18351;47.560;9.708;2022-07-29T15:11:47;24.60;92.30
31783;DHT22;18351;47.560;9.708;2022-07-29T15:14:12;24.50;92.70
31783;DHT22;18351;47.560;9.708;2022-07-29T15:16:39;24.50;93.60
31783;DHT22;18351;47.560;9.708;2022-07-29T15:19:08;24.50;93.70
31783;DHT22;18351;47.560;9.708;2022-07-29T15:21:34;24.40;94.40
31783;DHT22;18351;47.560;9.708;2022-07-29T15:24:00;24.30;94.60
31783;DHT22;18351;47.560;9.708;2022-07-29T15:26:26;24.20;94.20
31783;DHT22;18351;47.560;9.708;2022-07-29T15:28:51;24.10;94.00
31783;DHT22;18351;47.560;9.708;2022-07-29T15:31:17;24.00;94.60
31783;DHT22;18351;47.560;9.708;2022-07-29T15:33:44;24.00;95.20
31783;DHT22;18351;47.560;9.708;2022-07-29T15:36:10;23.90;96.10
31783;DHT22;18351;47.560;9.708;2022-07-29T15:38:38;23.70;96.50
31783;DHT22;18351;47.560;9.708;2022-07-29T15:41:06;23.50;97.10
31783;DHT22;18351;47.560;9.708;2022-07-29T15:43:32;23.40;97.90
31783;DHT22;18351;47.560;9.708;2022-07-29T15:45:59;23.30;98.30
31783;DHT22;18351;47.560;9.708;2022-07-29T15:48:44;23.20;99.80
31783;DHT22;18351;47.560;9.708;2022-07-29T15:51:09;23.10;99.90
31783;DHT22;18351;47.560;9.708;2022-07-29T15:53:35;22.90;99.90
31783;DHT22;18351;47.560;9.708;2022-07-29T15:56:00;22.70;99.90
31783;DHT22;18351;47.560;9.708;2022-07-29T15:58:26;22.50;99.90
31783;DHT22;18351;47.560;9.708;2022-07-29T16:00:52;22.30;99.90
31783;DHT22;18351;47.560;9.708;2022-07-29T16:03:17;22.20;99.90
31783;DHT22;18351;47.560;9.708;2022-07-29T16:05:44;22.10;99.90
31783;DHT22;18351;47.560;9.708;2022-07-29T16:08:09;22.00;99.90
31783;DHT22;18351;47.560;9.708;2022-07-29T16:10:35;22.00;99.90
31783;DHT22;18351;47.560;9.708;2022-07-29T16:13:00;21.90;99.90
31783;DHT22;18351;47.560;9.708;2022-07-29T16:15:26;21.80;99.90
31783;DHT22;18351;47.560;9.708;2022-07-29T16:17:51;21.80;99.90
31783;DHT22;18351;47.560;9.708;2022-07-29T16:20:17;21.80;99.90
31783;DHT22;18351;47.560;9.708;2022-07-29T16:22:43;21.80;99.90
31783;DHT22;18351;47.560;9.708;2022-07-29T16:25:08;21.80;99.90